createdAt,value
2023-01-30T00:01:17.816Z,100873.47
2023-01-30T00:03:45.054Z,100872.44
2023-01-30T00:06:11.958Z,100866.28
2023-01-30T00:08:38.809Z,100881.28
2023-01-30T00:11:06.958Z,100862.22
2023-01-30T00:13:33.782Z,100869.09
2023-01-30T00:16:00.443Z,100857.47
2023-01-30T00:18:27.221Z,100844.88
2023-01-30T00:20:58.855Z,100851.59
2023-01-30T00:23:26.326Z,100844.31
2023-01-30T00:25:53.385Z,100836.38
2023-01-30T00:28:19.956Z,100834.16
2023-01-30T00:30:51.179Z,100831.25
2023-01-30T00:33:18.828Z,100823.34
2023-01-30T00:35:46.923Z,100812.28
2023-01-30T00:38:14.075Z,100816.44
2023-01-30T00:40:41.818Z,100817.34
2023-01-30T00:43:33.678Z,100794.78
2023-01-30T00:46:21.580Z,100800.19
2023-01-30T00:48:48.325Z,100798.66
2023-01-30T00:51:14.912Z,100792.16
2023-01-30T00:53:41.499Z,100780.00
2023-01-30T00:56:08.124Z,100784.44
2023-01-30T00:58:35.389Z,100785.13
2023-01-30T01:01:03.138Z,100776.66
2023-01-30T01:03:29.767Z,100769.41
2023-01-30T01:05:56.295Z,100768.75
2023-01-30T01:08:22.903Z,100770.84
2023-01-30T01:10:49.508Z,100755.63
2023-01-30T01:13:16.177Z,100756.53
2023-01-30T01:15:42.686Z,100758.41
2023-01-30T01:18:09.498Z,100755.16
2023-01-30T01:20:36.064Z,100757.53
2023-01-30T01:23:03.285Z,100744.75
2023-01-30T01:25:29.857Z,100739.88
2023-01-30T01:27:56.595Z,100738.13
2023-01-30T01:30:23.909Z,100729.66
2023-01-30T01:32:50.513Z,100718.81
2023-01-30T01:35:17.378Z,100725.19
2023-01-30T01:37:44.169Z,100719.47
2023-01-30T01:40:36.531Z,100715.19
2023-01-30T01:43:14.927Z,100719.59
2023-01-30T01:45:42.234Z,100715.97
2023-01-30T01:48:32.477Z,100714.31
2023-01-30T01:51:05.674Z,100730.81
2023-01-30T01:53:42.695Z,100708.50
2023-01-30T01:56:12.444Z,100702.75
2023-01-30T01:59:03.069Z,100692.16
2023-01-30T02:01:30.136Z,100697.56
2023-01-30T02:04:01.898Z,100691.19
2023-01-30T02:06:29.731Z,100690.84
2023-01-30T02:09:02.467Z,100685.97
2023-01-30T02:11:53.286Z,100677.94
2023-01-30T02:14:21.997Z,100668.34
2023-01-30T02:16:50.648Z,100668.56
2023-01-30T02:19:20.224Z,100658.56
2023-01-30T02:22:09.467Z,100640.31
2023-01-30T02:25:07.980Z,100634.59
2023-01-30T02:28:00.298Z,100642.25
2023-01-30T02:30:52.225Z,100633.75
2023-01-30T02:33:36.109Z,100647.13
2023-01-30T02:36:16.537Z,100641.84
2023-01-30T02:39:12.029Z,100632.06
2023-01-30T02:41:55.389Z,100623.97
2023-01-30T02:44:37.292Z,100633.56
2023-01-30T02:47:18.970Z,100620.78
2023-01-30T02:49:54.637Z,100624.63
2023-01-30T02:52:22.495Z,100610.16
2023-01-30T02:54:49.015Z,100609.97
2023-01-30T02:57:22.257Z,100598.50
2023-01-30T02:59:56.927Z,100602.28
2023-01-30T03:02:45.336Z,100601.47
2023-01-30T03:05:49.404Z,100592.53
2023-01-30T03:08:33.836Z,100591.63
2023-01-30T03:11:05.531Z,100589.94
2023-01-30T03:13:49.211Z,100564.38
2023-01-30T03:16:35.242Z,100574.84
2023-01-30T03:19:03.897Z,100577.16
2023-01-30T03:21:31.727Z,100554.56
2023-01-30T03:23:58.675Z,100560.13
2023-01-30T03:26:30.994Z,100557.56
2023-01-30T03:28:58.279Z,100551.56
2023-01-30T03:31:24.949Z,100572.00
2023-01-30T03:33:51.552Z,100574.59
2023-01-30T03:36:18.364Z,100559.28
2023-01-30T03:38:45.146Z,100548.03
2023-01-30T03:41:11.785Z,100543.94
2023-01-30T03:43:39.244Z,100532.91
2023-01-30T03:46:06.155Z,100516.91
2023-01-30T03:48:32.719Z,100529.00
2023-01-30T03:50:59.418Z,100527.69
2023-01-30T03:53:26.031Z,100520.91
2023-01-30T03:55:53.349Z,100530.19
2023-01-30T03:58:25.218Z,100523.09
2023-01-30T04:00:52.140Z,100518.88
2023-01-30T04:03:18.744Z,100518.31
2023-01-30T04:05:45.436Z,100519.56
2023-01-30T04:08:12.639Z,100514.19
2023-01-30T04:10:39.135Z,100512.63
2023-01-30T04:13:06.148Z,100502.81
2023-01-30T04:15:33.284Z,100507.75
2023-01-30T04:18:18.590Z,100508.84
2023-01-30T04:21:02.129Z,100512.47
2023-01-30T04:23:34.751Z,100495.88
2023-01-30T04:26:02.228Z,100496.09
2023-01-30T04:28:28.863Z,100501.94
2023-01-30T04:30:56.130Z,100499.41
2023-01-30T04:33:43.604Z,100508.31
2023-01-30T04:36:12.636Z,100493.63
2023-01-30T04:38:40.259Z,100479.81
2023-01-30T04:41:07.852Z,100495.50
2023-01-30T04:43:37.610Z,100517.63
2023-01-30T04:46:25.776Z,100513.38
2023-01-30T04:48:52.648Z,100511.69
2023-01-30T04:51:19.474Z,100503.53
2023-01-30T04:53:47.181Z,100491.66
2023-01-30T04:56:13.794Z,100478.50
2023-01-30T04:58:40.631Z,100475.06
2023-01-30T05:01:35.019Z,100481.47
2023-01-30T05:04:02.903Z,100482.31
2023-01-30T05:06:30.865Z,100483.25
2023-01-30T05:08:58.477Z,100481.34
2023-01-30T05:11:27.341Z,100482.00
2023-01-30T05:13:54.300Z,100471.94
2023-01-30T05:16:22.441Z,100484.41
2023-01-30T05:18:49.593Z,100475.63
2023-01-30T05:21:19.558Z,100477.75
2023-01-30T05:23:46.172Z,100472.22
2023-01-30T05:26:13.964Z,100471.31
2023-01-30T05:28:41.465Z,100476.84
2023-01-30T05:31:13.535Z,100449.03
2023-01-30T05:33:41.225Z,100458.13
2023-01-30T05:36:13.743Z,100470.69
2023-01-30T05:38:40.347Z,100464.41
2023-01-30T05:41:08.288Z,100467.78
2023-01-30T05:43:35.318Z,100456.34
2023-01-30T05:46:05.567Z,100469.47
2023-01-30T05:48:33.351Z,100457.84
2023-01-30T05:51:00.033Z,100466.72
2023-01-30T05:53:29.382Z,100464.09
2023-01-30T05:55:57.800Z,100461.50
2023-01-30T05:58:24.937Z,100467.59
2023-01-30T06:00:51.756Z,100472.91
2023-01-30T06:03:18.655Z,100470.22
2023-01-30T06:05:45.451Z,100470.63
2023-01-30T06:08:12.410Z,100484.84
2023-01-30T06:10:39.009Z,100494.88
2023-01-30T06:13:05.634Z,100484.03
2023-01-30T06:15:33.067Z,100487.53
2023-01-30T06:17:59.709Z,100478.03
2023-01-30T06:20:26.225Z,100478.19
2023-01-30T06:22:52.778Z,100472.09
2023-01-30T06:25:19.777Z,100464.59
2023-01-30T06:27:46.683Z,100467.97
2023-01-30T06:30:13.620Z,100478.69
2023-01-30T06:32:40.288Z,100482.50
2023-01-30T06:35:07.390Z,100489.69
2023-01-30T06:37:34.019Z,100492.09
2023-01-30T06:40:00.624Z,100505.34
2023-01-30T06:42:27.165Z,100521.22
2023-01-30T06:44:53.696Z,100518.63
2023-01-30T06:47:20.370Z,100530.69
2023-01-30T06:49:49.080Z,100510.06
2023-01-30T06:52:15.611Z,100518.50
2023-01-30T06:54:42.139Z,100508.41
2023-01-30T06:57:08.827Z,100501.72
2023-01-30T06:59:35.377Z,100504.00
2023-01-30T07:02:02.191Z,100491.09
2023-01-30T07:04:29.027Z,100503.06
2023-01-30T07:06:55.729Z,100504.44
2023-01-30T07:09:22.261Z,100503.44
2023-01-30T07:11:50.252Z,100510.13
2023-01-30T07:14:16.793Z,100515.56
2023-01-30T07:16:43.408Z,100524.63
2023-01-30T07:19:10.201Z,100520.22
2023-01-30T07:21:36.800Z,100525.63
2023-01-30T07:24:03.501Z,100526.34
2023-01-30T07:26:31.199Z,100525.97
2023-01-30T07:28:58.219Z,100532.50
2023-01-30T07:31:24.924Z,100543.47
2023-01-30T07:33:51.570Z,100552.22
2023-01-30T07:36:18.244Z,100548.69
2023-01-30T07:38:44.797Z,100552.59
2023-01-30T07:41:11.422Z,100554.78
2023-01-30T07:43:37.994Z,100552.22
2023-01-30T07:46:04.736Z,100555.97
2023-01-30T07:48:31.349Z,100557.75
2023-01-30T07:50:57.966Z,100558.84
2023-01-30T07:53:24.807Z,100561.00
2023-01-30T07:55:51.643Z,100562.56
2023-01-30T07:58:18.319Z,100563.94
2023-01-30T08:00:45.216Z,100562.72
2023-01-30T08:03:16.876Z,100569.69
2023-01-30T08:05:46.808Z,100569.25
2023-01-30T08:08:13.720Z,100569.78
2023-01-30T08:10:40.219Z,100573.34
2023-01-30T08:13:06.816Z,100567.78
2023-01-30T08:15:33.458Z,100586.91
2023-01-30T08:18:00.288Z,100576.91
2023-01-30T08:20:28.228Z,100574.56
2023-01-30T08:22:55.206Z,100579.59
2023-01-30T08:25:22.833Z,100576.75
2023-01-30T08:27:49.783Z,100574.78
2023-01-30T08:30:17.101Z,100578.59
2023-01-30T08:32:44.047Z,100585.59
2023-01-30T08:35:10.899Z,100596.47
2023-01-30T08:37:40.060Z,100599.16
2023-01-30T08:40:07.728Z,100605.09
2023-01-30T08:42:34.338Z,100611.59
2023-01-30T08:45:01.009Z,100592.91
2023-01-30T08:47:27.610Z,100596.00
2023-01-30T08:49:54.292Z,100595.72
2023-01-30T08:52:20.942Z,100594.56
2023-01-30T08:54:47.492Z,100618.03
2023-01-30T08:57:15.338Z,100609.94
2023-01-30T08:59:41.840Z,100616.00
2023-01-30T09:02:12.661Z,100622.88
2023-01-30T09:04:40.077Z,100619.81
2023-01-30T09:07:06.590Z,100622.25
2023-01-30T09:09:33.294Z,100631.47
2023-01-30T09:11:59.762Z,100639.47
2023-01-30T09:14:26.460Z,100639.47
2023-01-30T09:16:55.968Z,100626.78
2023-01-30T09:19:24.131Z,100625.91
2023-01-30T09:21:51.744Z,100620.34
2023-01-30T09:24:19.379Z,100613.44
2023-01-30T09:26:46.148Z,100606.56
2023-01-30T09:29:12.915Z,100624.66
2023-01-30T09:31:39.681Z,100628.06
2023-01-30T09:34:07.800Z,100635.78
2023-01-30T09:36:34.313Z,100645.72
2023-01-30T09:39:00.879Z,100650.28
2023-01-30T09:41:42.704Z,100647.41
2023-01-30T09:44:12.346Z,100657.75
2023-01-30T09:47:11.922Z,100661.53
2023-01-30T09:49:56.552Z,100644.19
2023-01-30T09:52:51.345Z,100658.75
2023-01-30T09:55:32.756Z,100650.56
2023-01-30T09:58:00.772Z,100649.81
2023-01-30T10:00:39.424Z,100660.47
2023-01-30T10:03:09.543Z,100661.22
2023-01-30T10:05:52.913Z,100654.47
2023-01-30T10:08:34.835Z,100656.75
2023-01-30T10:11:19.579Z,100657.69
2023-01-30T10:14:13.342Z,100660.31
2023-01-30T10:17:07.261Z,100650.25
2023-01-30T10:19:44.903Z,100655.41
2023-01-30T10:22:36.268Z,100647.41
2023-01-30T10:25:13.894Z,100640.00
2023-01-30T10:27:51.431Z,100642.63
2023-01-30T10:30:18.948Z,100648.00
2023-01-30T10:32:56.888Z,100651.91
2023-01-30T10:35:27.450Z,100639.28
2023-01-30T10:38:16.250Z,100652.06
2023-01-30T10:40:49.152Z,100660.56
2023-01-30T10:43:27.584Z,100655.78
2023-01-30T10:46:21.843Z,100656.59
2023-01-30T10:49:01.513Z,100661.03
2023-01-30T10:51:55.453Z,100650.84
2023-01-30T10:54:26.430Z,100660.25
2023-01-30T10:56:58.850Z,100661.69
2023-01-30T10:59:43.059Z,100666.34
2023-01-30T11:02:43.310Z,100658.78
2023-01-30T11:05:16.424Z,100670.38
2023-01-30T11:07:45.888Z,100679.56
2023-01-30T11:10:17.293Z,100667.28
2023-01-30T11:12:43.976Z,100683.59
2023-01-30T11:15:11.790Z,100670.50
2023-01-30T11:17:43.066Z,100670.72
2023-01-30T11:20:22.440Z,100677.13
2023-01-30T11:23:00.099Z,100668.00
2023-01-30T11:25:26.759Z,100681.13
2023-01-30T11:28:01.899Z,100673.41
2023-01-30T11:30:35.496Z,100683.22
2023-01-30T11:33:13.259Z,100676.97
2023-01-30T11:35:54.200Z,100686.78
2023-01-30T11:38:24.519Z,100683.03
2023-01-30T11:41:02.083Z,100673.88
2023-01-30T11:43:28.829Z,100687.16
2023-01-30T11:45:55.993Z,100678.13
2023-01-30T11:49:01.271Z,100686.16
2023-01-30T11:51:19.296Z,100698.09
2023-01-30T11:53:50.733Z,100675.00
2023-01-30T11:56:24.343Z,100691.31
2023-01-30T11:59:04.763Z,100685.69
2023-01-30T12:01:34.820Z,100673.81
2023-01-30T12:04:06.393Z,100670.44
2023-01-30T12:06:37.085Z,100689.31
2023-01-30T12:09:04.424Z,100686.28
2023-01-30T12:11:36.991Z,100670.25
2023-01-30T12:14:26.934Z,100678.28
2023-01-30T12:17:21.351Z,100691.59
2023-01-30T12:20:16.122Z,100686.28
2023-01-30T12:22:46.428Z,100691.78
2023-01-30T12:25:15.897Z,100695.31
2023-01-30T12:27:54.255Z,100683.59
2023-01-30T12:30:56.372Z,100681.13
2023-01-30T12:33:28.902Z,100688.84
2023-01-30T12:36:07.766Z,100690.06
2023-01-30T12:38:52.932Z,100693.91
2023-01-30T12:41:52.567Z,100676.19
2023-01-30T12:44:41.850Z,100687.63
2023-01-30T12:47:41.985Z,100680.50
2023-01-30T12:50:29.758Z,100687.78
2023-01-30T12:53:17.843Z,100699.25
2023-01-30T12:56:12.246Z,100694.41
2023-01-30T12:58:45.835Z,100705.28
2023-01-30T13:01:37.948Z,100704.13
2023-01-30T13:05:01.761Z,100710.72
2023-01-30T13:07:31.755Z,100711.50
2023-01-30T13:10:27.871Z,100716.59
2023-01-30T13:13:21.544Z,100712.28
2023-01-30T13:16:06.515Z,100719.97
2023-01-30T13:18:42.782Z,100729.41
2023-01-30T13:21:46.803Z,100732.00
2023-01-30T13:24:18.538Z,100724.88
2023-01-30T13:26:48.136Z,100720.16
2023-01-30T13:29:31.200Z,100724.75
2023-01-30T13:32:02.367Z,100726.84
2023-01-30T13:34:44.431Z,100738.16
2023-01-30T13:37:13.612Z,100728.63
2023-01-30T13:40:23.838Z,100741.28
2023-01-30T13:42:58.152Z,100735.72
2023-01-30T13:45:35.411Z,100731.84
2023-01-30T13:48:14.203Z,100747.59
2023-01-30T13:51:08.555Z,100741.69
2023-01-30T13:53:45.981Z,100758.09
2023-01-30T13:56:41.438Z,100756.56
2023-01-30T13:59:30.292Z,100771.38
2023-01-30T14:02:01.975Z,100779.00
2023-01-30T14:04:40.928Z,100770.66
2023-01-30T14:07:41.705Z,100782.00
2023-01-30T14:10:20.952Z,100767.28
2023-01-30T14:12:50.883Z,100774.13
2023-01-30T14:15:20.628Z,100781.22
2023-01-30T14:18:14.462Z,100794.13
2023-01-30T14:20:45.719Z,100780.56
2023-01-30T14:23:53.396Z,100795.28
2023-01-30T14:26:48.747Z,100800.97
2023-01-30T14:29:42.973Z,100803.25
2023-01-30T14:32:13.040Z,100801.22
2023-01-30T14:34:43.167Z,100811.31
2023-01-30T14:37:41.943Z,100817.13
2023-01-30T14:40:20.768Z,100847.34
2023-01-30T14:43:11.972Z,100847.16
2023-01-30T14:45:56.091Z,100856.13
2023-01-30T14:48:51.798Z,100854.03
2023-01-30T14:51:26.045Z,100860.06
2023-01-30T14:54:04.734Z,100870.47
2023-01-30T14:56:39.453Z,100889.22
2023-01-30T14:59:37.760Z,100883.31
2023-01-30T15:02:12.260Z,100885.75
2023-01-30T15:04:44.519Z,100900.94
2023-01-30T15:07:30.166Z,100898.41
2023-01-30T15:10:05.403Z,100910.16
2023-01-30T15:13:00.772Z,100907.16
2023-01-30T15:15:48.055Z,100902.97
2023-01-30T15:18:17.321Z,100904.34
2023-01-30T15:20:55.696Z,100917.94
2023-01-30T15:23:44.180Z,100920.81
2023-01-30T15:26:38.558Z,100922.38
2023-01-30T15:29:30.208Z,100931.53
2023-01-30T15:32:01.881Z,100918.22
2023-01-30T15:34:30.877Z,100933.22
2023-01-30T15:36:57.737Z,100924.75
2023-01-30T15:39:26.234Z,100931.69
2023-01-30T15:41:57.167Z,100940.75
2023-01-30T15:44:29.723Z,100949.81
2023-01-30T15:47:33.587Z,100952.25
2023-01-30T15:50:06.977Z,100955.09
2023-01-30T15:52:48.135Z,100953.84
2023-01-30T15:55:26.601Z,100955.06
2023-01-30T15:57:58.313Z,100965.44
2023-01-30T16:00:28.637Z,100961.78
2023-01-30T16:02:56.708Z,100987.69
2023-01-30T16:05:26.013Z,100994.09
2023-01-30T16:07:54.852Z,100996.53
2023-01-30T16:10:29.899Z,100994.31
2023-01-30T16:12:58.324Z,100992.63
2023-01-30T16:15:46.342Z,101007.44
2023-01-30T16:18:41.054Z,101015.06
2023-01-30T16:21:15.435Z,101016.09
2023-01-30T16:23:52.682Z,101026.50
2023-01-30T16:26:21.691Z,101039.38
2023-01-30T16:28:50.719Z,101046.50
2023-01-30T16:31:18.384Z,101050.06
2023-01-30T16:33:51.977Z,101055.69
2023-01-30T16:36:21.550Z,101063.13
2023-01-30T16:38:50.317Z,101063.56
2023-01-30T16:41:31.036Z,101065.16
2023-01-30T16:44:19.354Z,101074.81
2023-01-30T16:46:51.772Z,101075.13
2023-01-30T16:49:23.089Z,101086.59
2023-01-30T16:51:58.392Z,101094.97
2023-01-30T16:54:28.453Z,101094.66
2023-01-30T16:56:58.019Z,101096.53
2023-01-30T16:59:33.380Z,101109.13
2023-01-30T17:02:02.627Z,101097.75
2023-01-30T17:04:31.589Z,101110.81
2023-01-30T17:07:01.159Z,101103.81
2023-01-30T17:09:33.619Z,101116.38
2023-01-30T17:12:00.294Z,101128.66
2023-01-30T17:14:31.204Z,101119.97
2023-01-30T17:17:08.264Z,101138.44
2023-01-30T17:19:35.879Z,101140.50
2023-01-30T17:22:08.564Z,101149.81
2023-01-30T17:24:36.020Z,101155.03
2023-01-30T17:27:04.371Z,101155.31
2023-01-30T17:29:42.496Z,101153.44
2023-01-30T17:32:14.991Z,101159.09
2023-01-30T17:34:41.827Z,101154.16
2023-01-30T17:37:15.432Z,101164.41
2023-01-30T17:39:42.006Z,101170.31
2023-01-30T17:42:13.148Z,101173.28
2023-01-30T17:44:40.399Z,101184.94
2023-01-30T17:47:10.804Z,101186.03
2023-01-30T17:49:37.420Z,101185.34
2023-01-30T17:52:04.129Z,101195.28
2023-01-30T17:54:30.722Z,101194.25
2023-01-30T17:57:03.232Z,101203.72
2023-01-30T17:59:31.034Z,101203.53
2023-01-30T18:01:57.601Z,101204.38
2023-01-30T18:04:24.223Z,101204.19
2023-01-30T18:06:55.381Z,101208.66
2023-01-30T18:09:23.573Z,101217.16
2023-01-30T18:11:51.064Z,101213.31
2023-01-30T18:14:18.443Z,101211.19
2023-01-30T18:16:45.144Z,101215.03
2023-01-30T18:19:14.038Z,101229.56
2023-01-30T18:21:44.832Z,101223.19
2023-01-30T18:24:12.559Z,101233.22
2023-01-30T18:26:40.306Z,101225.97
2023-01-30T18:29:09.506Z,101232.13
2023-01-30T18:31:36.268Z,101228.31
2023-01-30T18:34:02.841Z,101224.69
2023-01-30T18:36:29.393Z,101231.91
2023-01-30T18:38:56.161Z,101230.22
2023-01-30T18:41:24.456Z,101238.13
2023-01-30T18:43:56.127Z,101241.06
2023-01-30T18:46:23.262Z,101222.75
2023-01-30T18:48:49.790Z,101230.84
2023-01-30T18:51:18.720Z,101234.91
2023-01-30T18:53:47.816Z,101238.72
2023-01-30T18:56:20.887Z,101242.97
2023-01-30T18:58:52.319Z,101241.31
2023-01-30T19:01:21.752Z,101226.25
2023-01-30T19:03:48.725Z,101238.84
2023-01-30T19:06:18.261Z,101244.06
2023-01-30T19:09:53.346Z,101250.81
2023-01-30T19:12:38.565Z,101247.75
2023-01-30T19:15:05.979Z,101251.34
2023-01-30T19:17:32.504Z,101250.22
2023-01-30T19:20:01.789Z,101245.53
2023-01-30T19:22:28.410Z,101248.75
2023-01-30T19:24:55.655Z,101257.53
2023-01-30T19:27:22.641Z,101262.59
2023-01-30T19:29:50.318Z,101271.72
2023-01-30T19:32:16.856Z,101275.91
2023-01-30T19:34:43.924Z,101277.44
2023-01-30T19:37:10.659Z,101281.75
2023-01-30T19:39:37.456Z,101284.88
2023-01-30T19:43:10.790Z,101288.34
2023-01-30T19:45:42.314Z,101292.19
2023-01-30T19:48:10.729Z,101296.22
2023-01-30T19:50:37.712Z,101299.91
2023-01-30T19:53:04.717Z,101308.47
2023-01-30T19:55:35.057Z,101302.22
2023-01-30T19:58:01.971Z,101310.34
2023-01-30T20:00:28.673Z,101321.31
2023-01-30T20:02:56.832Z,101324.09
2023-01-30T20:05:23.555Z,101323.28
2023-01-30T20:07:50.127Z,101332.16
2023-01-30T20:10:17.601Z,101335.56
2023-01-30T20:12:45.013Z,101341.44
2023-01-30T20:15:11.707Z,101342.16
2023-01-30T20:17:38.293Z,101346.13
2023-01-30T20:20:06.595Z,101348.91
2023-01-30T20:26:48.222Z,101358.47
2023-01-30T20:29:17.371Z,101360.16
2023-01-30T20:31:43.971Z,101356.53
2023-01-30T20:34:12.793Z,101364.22
2023-01-30T20:36:39.409Z,101354.97
2023-01-30T20:39:07.582Z,101357.63
2023-01-30T20:41:36.476Z,101362.47
2023-01-30T20:44:04.978Z,101378.66
2023-01-30T20:46:40.734Z,101386.41
2023-01-30T20:49:08.163Z,101375.78
2023-01-30T20:51:37.495Z,101389.47
2023-01-30T20:54:07.574Z,101383.19
2023-01-30T20:56:37.358Z,101393.53
2023-01-30T20:59:06.211Z,101395.13
2023-01-30T21:01:33.673Z,101387.03
2023-01-30T21:04:06.423Z,101382.47
2023-01-30T21:06:41.821Z,101385.06
2023-01-30T21:09:18.107Z,101388.13
2023-01-30T21:11:45.376Z,101391.53
2023-01-30T21:14:12.374Z,101401.97
2023-01-30T21:16:39.647Z,101403.00
2023-01-30T21:19:09.652Z,101404.63
2023-01-30T21:21:40.612Z,101399.59
2023-01-30T21:24:14.077Z,101409.28
2023-01-30T21:26:44.494Z,101401.72
2023-01-30T21:29:12.037Z,101403.38
2023-01-30T21:31:40.230Z,101408.81
2023-01-30T21:34:08.025Z,101406.69
2023-01-30T21:36:34.565Z,101418.31
2023-01-30T21:39:19.454Z,101404.88
2023-01-30T21:42:05.404Z,101407.94
2023-01-30T21:44:37.068Z,101412.00
2023-01-30T21:47:05.579Z,101411.63
2023-01-30T21:49:32.447Z,101406.03
2023-01-30T21:51:58.994Z,101417.38
2023-01-30T21:54:25.689Z,101422.00
2023-01-30T21:56:52.409Z,101426.91
2023-01-30T21:59:18.937Z,101415.53
2023-01-30T22:01:46.020Z,101419.66
2023-01-30T22:04:14.985Z,101416.78
2023-01-30T22:06:42.467Z,101417.94
2023-01-30T22:09:12.959Z,101419.97
2023-01-30T22:11:39.807Z,101424.91
2023-01-30T22:14:06.402Z,101410.53
2023-01-30T22:16:33.523Z,101419.09
2023-01-30T22:19:02.752Z,101422.13
2023-01-30T22:21:32.518Z,101430.09
2023-01-30T22:23:59.161Z,101426.41
2023-01-30T22:26:26.620Z,101420.81
2023-01-30T22:28:55.087Z,101432.41
2023-01-30T22:31:22.975Z,101420.81
2023-01-30T22:33:53.484Z,101423.50
2023-01-30T22:36:22.530Z,101428.50
2023-01-30T22:38:50.521Z,101425.56
2023-01-30T22:41:19.691Z,101423.19
2023-01-30T22:43:49.087Z,101424.44
2023-01-30T22:46:17.902Z,101429.28
2023-01-30T22:48:44.898Z,101429.47
2023-01-30T22:51:20.210Z,101436.44
2023-01-30T22:53:49.301Z,101440.06
2023-01-30T22:56:18.792Z,101446.22
2023-01-30T22:58:47.361Z,101441.94
2023-01-30T23:01:23.215Z,101443.09
2023-01-30T23:03:58.187Z,101450.13
2023-01-30T23:06:25.469Z,101445.47
2023-01-30T23:08:53.744Z,101451.31
2023-01-30T23:11:22.245Z,101446.72
2023-01-30T23:13:51.197Z,101445.38
2023-01-30T23:16:20.788Z,101449.28
2023-01-30T23:18:58.188Z,101451.75
2023-01-30T23:21:29.444Z,101446.63
2023-01-30T23:23:58.849Z,101431.94
2023-01-30T23:26:31.111Z,101438.72
2023-01-30T23:28:58.643Z,101453.28
2023-01-30T23:31:27.231Z,101448.50
2023-01-30T23:33:55.734Z,101448.34
2023-01-30T23:36:23.061Z,101450.44
2023-01-30T23:38:51.044Z,101447.69
2023-01-30T23:41:26.409Z,101454.84
2023-01-30T23:43:53.291Z,101452.44
2023-01-30T23:46:23.966Z,101461.97
2023-01-30T23:48:53.482Z,101452.41
2023-01-30T23:51:23.356Z,101459.84
2023-01-30T23:53:51.425Z,101457.25
2023-01-30T23:56:19.408Z,101454.53
2023-01-30T23:58:46.677Z,101464.31
